sensor_id;sensor_type;location;lat;lon;timestamp;temperature;humidity
22986;DHT22;11659;51.092;7.080;2022-11-03T00:01:35;11.20;99.90
22986;DHT22;11659;51.092;7.080;2022-11-03T00:04:05;11.20;99.90
22986;DHT22;11659;51.092;7.080;2022-11-03T00:06:31;11.20;99.90
22986;DHT22;11659;51.092;7.080;2022-11-03T00:09:00;11.20;99.90
22986;DHT22;11659;51.092;7.080;2022-11-03T00:11:26;11.30;99.90
22986;DHT22;11659;51.092;7.080;2022-11-03T00:13:52;11.30;99.90
22986;DHT22;11659;51.092;7.080;2022-11-03T00:16:19;11.30;99.90
22986;DHT22;11659;51.092;7.080;2022-11-03T00:18:45;11.30;99.90
22986;DHT22;11659;51.092;7.080;2022-11-03T00:21:12;11.40;99.90
22986;DHT22;11659;51.092;7.080;2022-11-03T00:23:39;11.50;99.90
22986;DHT22;11659;51.092;7.080;2022-11-03T00:26:09;11.50;99.90
22986;DHT22;11659;51.092;7.080;2022-11-03T00:28:36;11.50;99.90
22986;DHT22;11659;51.092;7.080;2022-11-03T00:31:06;11.50;99.90
22986;DHT22;11659;51.092;7.080;2022-11-03T00:33:32;11.60;99.90
22986;DHT22;11659;51.092;7.080;2022-11-03T00:35:59;11.60;99.90
22986;DHT22;11659;51.092;7.080;2022-11-03T00:38:26;11.60;99.90
22986;DHT22;11659;51.092;7.080;2022-11-03T00:40:53;11.70;99.90
22986;DHT22;11659;51.092;7.080;2022-11-03T00:43:21;11.70;99.90
22986;DHT22;11659;51.092;7.080;2022-11-03T00:45:47;11.70;99.90
22986;DHT22;11659;51.092;7.080;2022-11-03T00:48:13;11.70;99.90
22986;DHT22;11659;51.092;7.080;2022-11-03T00:50:59;11.70;99.90
22986;DHT22;11659;51.092;7.080;2022-11-03T00:53:25;11.70;99.90
22986;DHT22;11659;51.092;7.080;2022-11-03T00:55:51;11.70;99.90
22986;DHT22;11659;51.092;7.080;2022-11-03T00:58:17;11.70;99.90
22986;DHT22;11659;51.092;7.080;2022-11-03T01:00:44;11.70;99.90
22986;DHT22;11659;51.092;7.080;2022-11-03T01:03:11;11.70;99.90
22986;DHT22;11659;51.092;7.080;2022-11-03T01:05:39;11.70;99.90
22986;DHT22;11659;51.092;7.080;2022-11-03T01:08:23;11.70;99.90
22986;DHT22;11659;51.092;7.080;2022-11-03T01:10:49;11.70;99.90
22986;DHT22;11659;51.092;7.080;2022-11-03T01:13:34;11.70;99.90
22986;DHT22;11659;51.092;7.080;2022-11-03T01:16:01;11.70;99.90
22986;DHT22;11659;51.092;7.080;2022-11-03T01:18:27;11.70;99.90
22986;DHT22;11659;51.092;7.080;2022-11-03T01:20:54;11.70;99.90
22986;DHT22;11659;51.092;7.080;2022-11-03T01:23:20;11.70;99.90
22986;DHT22;11659;51.092;7.080;2022-11-03T01:25:46;11.70;99.90
22986;DHT22;11659;51.092;7.080;2022-11-03T01:28:12;11.70;99.90
22986;DHT22;11659;51.092;7.080;2022-11-03T01:30:38;11.70;99.90
22986;DHT22;11659;51.092;7.080;2022-11-03T01:33:05;11.70;99.90
22986;DHT22;11659;51.092;7.080;2022-11-03T01:35:31;11.70;99.90
22986;DHT22;11659;51.092;7.080;2022-11-03T01:37:57;11.70;99.90
22986;DHT22;11659;51.092;7.080;2022-11-03T01:40:23;11.70;99.90
22986;DHT22;11659;51.092;7.080;2022-11-03T01:42:49;11.70;99.90
22986;DHT22;11659;51.092;7.080;2022-11-03T01:45:15;11.70;99.90
22986;DHT22;11659;51.092;7.080;2022-11-03T01:47:42;11.70;99.90
22986;DHT22;11659;51.092;7.080;2022-11-03T01:50:12;11.70;99.90
22986;DHT22;11659;51.092;7.080;2022-11-03T01:52:43;11.70;99.90
22986;DHT22;11659;51.092;7.080;2022-11-03T01:55:12;11.70;99.90
22986;DHT22;11659;51.092;7.080;2022-11-03T01:57:42;11.70;99.90
22986;DHT22;11659;51.092;7.080;2022-11-03T02:00:10;11.70;99.90
22986;DHT22;11659;51.092;7.080;2022-11-03T02:02:40;11.70;99.90
22986;DHT22;11659;51.092;7.080;2022-11-03T02:05:07;11.70;99.90
22986;DHT22;11659;51.092;7.080;2022-11-03T02:07:39;11.70;99.90
22986;DHT22;11659;51.092;7.080;2022-11-03T02:10:08;11.70;99.90
22986;DHT22;11659;51.092;7.080;2022-11-03T02:12:34;11.70;99.90
22986;DHT22;11659;51.092;7.080;2022-11-03T02:15:04;11.70;99.90
22986;DHT22;11659;51.092;7.080;2022-11-03T02:17:32;11.70;99.90
22986;DHT22;11659;51.092;7.080;2022-11-03T02:20:01;11.70;99.90
22986;DHT22;11659;51.092;7.080;2022-11-03T02:22:54;11.70;99.90
22986;DHT22;11659;51.092;7.080;2022-11-03T02:25:36;11.70;99.90
22986;DHT22;11659;51.092;7.080;2022-11-03T02:28:05;11.70;99.90
22986;DHT22;11659;51.092;7.080;2022-11-03T02:30:34;11.70;99.90
22986;DHT22;11659;51.092;7.080;2022-11-03T02:33:11;11.60;99.90
22986;DHT22;11659;51.092;7.080;2022-11-03T02:35:43;11.60;99.90
22986;DHT22;11659;51.092;7.080;2022-11-03T02:38:13;11.60;99.90
22986;DHT22;11659;51.092;7.080;2022-11-03T02:40:44;11.70;99.90
22986;DHT22;11659;51.092;7.080;2022-11-03T02:43:11;11.60;99.90
22986;DHT22;11659;51.092;7.080;2022-11-03T02:45:39;11.60;99.90
22986;DHT22;11659;51.092;7.080;2022-11-03T02:48:07;11.70;99.90
22986;DHT22;11659;51.092;7.080;2022-11-03T02:50:34;11.70;99.90
22986;DHT22;11659;51.092;7.080;2022-11-03T02:53:00;11.70;99.90
22986;DHT22;11659;51.092;7.080;2022-11-03T02:55:32;11.70;99.90
22986;DHT22;11659;51.092;7.080;2022-11-03T02:58:06;11.60;99.90
22986;DHT22;11659;51.092;7.080;2022-11-03T03:00:40;11.80;99.90
22986;DHT22;11659;51.092;7.080;2022-11-03T03:03:12;12.40;99.90
22986;DHT22;11659;51.092;7.080;2022-11-03T03:05:41;11.80;99.90
22986;DHT22;11659;51.092;7.080;2022-11-03T03:08:11;11.80;99.90
22986;DHT22;11659;51.092;7.080;2022-11-03T03:10:39;11.80;99.90
22986;DHT22;11659;51.092;7.080;2022-11-03T03:13:08;11.80;99.90
22986;DHT22;11659;51.092;7.080;2022-11-03T03:15:41;11.80;99.90
22986;DHT22;11659;51.092;7.080;2022-11-03T03:18:15;11.80;99.90
22986;DHT22;11659;51.092;7.080;2022-11-03T03:20:46;11.80;99.90
22986;DHT22;11659;51.092;7.080;2022-11-03T03:23:18;11.80;99.90
22986;DHT22;11659;51.092;7.080;2022-11-03T03:25:48;11.80;99.90
22986;DHT22;11659;51.092;7.080;2022-11-03T03:28:19;11.80;99.90
22986;DHT22;11659;51.092;7.080;2022-11-03T03:30:47;11.80;99.90
22986;DHT22;11659;51.092;7.080;2022-11-03T03:33:14;11.80;99.90
22986;DHT22;11659;51.092;7.080;2022-11-03T03:35:43;11.80;99.90
22986;DHT22;11659;51.092;7.080;2022-11-03T03:38:14;11.80;99.90
22986;DHT22;11659;51.092;7.080;2022-11-03T03:40:43;11.70;99.90
22986;DHT22;11659;51.092;7.080;2022-11-03T03:43:13;11.70;99.90
22986;DHT22;11659;51.092;7.080;2022-11-03T03:45:42;11.70;99.90
22986;DHT22;11659;51.092;7.080;2022-11-03T03:48:09;11.70;99.90
22986;DHT22;11659;51.092;7.080;2022-11-03T03:50:37;11.60;99.90
22986;DHT22;11659;51.092;7.080;2022-11-03T03:53:06;11.60;99.90
22986;DHT22;11659;51.092;7.080;2022-11-03T03:55:36;11.60;99.90
22986;DHT22;11659;51.092;7.080;2022-11-03T03:58:03;11.70;99.90
22986;DHT22;11659;51.092;7.080;2022-11-03T04:00:29;11.60;99.90
22986;DHT22;11659;51.092;7.080;2022-11-03T04:02:57;11.50;99.90
22986;DHT22;11659;51.092;7.080;2022-11-03T04:05:23;11.50;99.90
22986;DHT22;11659;51.092;7.080;2022-11-03T04:07:49;11.50;99.90
22986;DHT22;11659;51.092;7.080;2022-11-03T04:10:18;11.50;99.90
22986;DHT22;11659;51.092;7.080;2022-11-03T04:12:44;11.40;99.90
22986;DHT22;11659;51.092;7.080;2022-11-03T04:15:30;11.40;99.90
22986;DHT22;11659;51.092;7.080;2022-11-03T04:18:16;11.40;99.90
22986;DHT22;11659;51.092;7.080;2022-11-03T04:21:01;11.40;99.90
22986;DHT22;11659;51.092;7.080;2022-11-03T04:23:45;11.40;99.90
22986;DHT22;11659;51.092;7.080;2022-11-03T04:26:13;11.40;99.90
22986;DHT22;11659;51.092;7.080;2022-11-03T04:28:40;11.40;99.90
22986;DHT22;11659;51.092;7.080;2022-11-03T04:31:09;11.50;99.90
22986;DHT22;11659;51.092;7.080;2022-11-03T04:33:39;11.40;99.90
22986;DHT22;11659;51.092;7.080;2022-11-03T04:36:11;11.40;99.90
22986;DHT22;11659;51.092;7.080;2022-11-03T04:38:38;11.40;99.90
22986;DHT22;11659;51.092;7.080;2022-11-03T04:41:08;11.40;99.90
22986;DHT22;11659;51.092;7.080;2022-11-03T04:43:37;11.40;99.90
22986;DHT22;11659;51.092;7.080;2022-11-03T04:46:04;11.40;99.90
22986;DHT22;11659;51.092;7.080;2022-11-03T04:48:33;11.40;99.90
22986;DHT22;11659;51.092;7.080;2022-11-03T04:51:01;11.40;99.90
22986;DHT22;11659;51.092;7.080;2022-11-03T04:53:30;11.40;99.90
22986;DHT22;11659;51.092;7.080;2022-11-03T04:55:56;11.40;99.90
22986;DHT22;11659;51.092;7.080;2022-11-03T04:58:25;11.40;99.90
22986;DHT22;11659;51.092;7.080;2022-11-03T05:00:53;11.40;99.90
22986;DHT22;11659;51.092;7.080;2022-11-03T05:03:22;11.40;99.90
22986;DHT22;11659;51.092;7.080;2022-11-03T05:05:50;11.40;99.90
22986;DHT22;11659;51.092;7.080;2022-11-03T05:08:18;11.50;99.90
22986;DHT22;11659;51.092;7.080;2022-11-03T05:10:45;11.50;99.90
22986;DHT22;11659;51.092;7.080;2022-11-03T05:13:16;11.60;99.90
22986;DHT22;11659;51.092;7.080;2022-11-03T05:15:44;11.50;99.90
22986;DHT22;11659;51.092;7.080;2022-11-03T05:18:16;11.60;99.90
22986;DHT22;11659;51.092;7.080;2022-11-03T05:20:47;11.60;99.90
22986;DHT22;11659;51.092;7.080;2022-11-03T05:23:13;11.70;99.90
22986;DHT22;11659;51.092;7.080;2022-11-03T05:25:42;11.70;99.90
22986;DHT22;11659;51.092;7.080;2022-11-03T05:28:18;11.70;99.90
22986;DHT22;11659;51.092;7.080;2022-11-03T05:30:46;11.80;99.90
22986;DHT22;11659;51.092;7.080;2022-11-03T05:33:25;11.80;99.90
22986;DHT22;11659;51.092;7.080;2022-11-03T05:35:52;11.80;99.90
22986;DHT22;11659;51.092;7.080;2022-11-03T05:38:19;11.90;99.90
22986;DHT22;11659;51.092;7.080;2022-11-03T05:40:49;11.90;99.90
22986;DHT22;11659;51.092;7.080;2022-11-03T05:43:15;11.90;99.90
22986;DHT22;11659;51.092;7.080;2022-11-03T05:45:41;11.90;99.90
22986;DHT22;11659;51.092;7.080;2022-11-03T05:48:14;11.90;99.90
22986;DHT22;11659;51.092;7.080;2022-11-03T05:50:41;11.90;99.90
22986;DHT22;11659;51.092;7.080;2022-11-03T05:53:23;11.90;99.90
22986;DHT22;11659;51.092;7.080;2022-11-03T05:55:51;11.90;99.90
22986;DHT22;11659;51.092;7.080;2022-11-03T05:58:22;11.90;99.90
22986;DHT22;11659;51.092;7.080;2022-11-03T06:00:49;11.90;99.90
22986;DHT22;11659;51.092;7.080;2022-11-03T06:03:18;11.90;99.90
22986;DHT22;11659;51.092;7.080;2022-11-03T06:05:46;11.90;99.90
22986;DHT22;11659;51.092;7.080;2022-11-03T06:08:14;12.00;99.90
22986;DHT22;11659;51.092;7.080;2022-11-03T06:10:47;11.90;99.90
22986;DHT22;11659;51.092;7.080;2022-11-03T06:13:18;11.80;99.90
22986;DHT22;11659;51.092;7.080;2022-11-03T06:15:46;11.90;99.90
22986;DHT22;11659;51.092;7.080;2022-11-03T06:18:14;12.20;99.90
22986;DHT22;11659;51.092;7.080;2022-11-03T06:20:41;11.80;99.90
22986;DHT22;11659;51.092;7.080;2022-11-03T06:23:08;11.90;99.90
22986;DHT22;11659;51.092;7.080;2022-11-03T06:25:36;11.80;99.90
22986;DHT22;11659;51.092;7.080;2022-11-03T06:28:04;11.80;99.90
22986;DHT22;11659;51.092;7.080;2022-11-03T06:30:33;11.80;99.90
22986;DHT22;11659;51.092;7.080;2022-11-03T06:33:08;11.70;99.90
22986;DHT22;11659;51.092;7.080;2022-11-03T06:35:37;11.80;99.90
22986;DHT22;11659;51.092;7.080;2022-11-03T06:38:07;11.70;99.90
22986;DHT22;11659;51.092;7.080;2022-11-03T06:40:37;11.70;99.90
22986;DHT22;11659;51.092;7.080;2022-11-03T06:43:15;11.80;99.90
22986;DHT22;11659;51.092;7.080;2022-11-03T06:45:48;11.70;99.90
22986;DHT22;11659;51.092;7.080;2022-11-03T06:48:21;11.70;99.90
22986;DHT22;11659;51.092;7.080;2022-11-03T06:50:47;11.70;99.90
22986;DHT22;11659;51.092;7.080;2022-11-03T06:53:19;11.70;99.90
22986;DHT22;11659;51.092;7.080;2022-11-03T06:55:45;11.70;99.90
22986;DHT22;11659;51.092;7.080;2022-11-03T06:58:15;11.70;99.90
22986;DHT22;11659;51.092;7.080;2022-11-03T07:00:43;11.70;99.90
22986;DHT22;11659;51.092;7.080;2022-11-03T07:03:15;11.70;99.90
22986;DHT22;11659;51.092;7.080;2022-11-03T07:05:43;11.70;99.90
22986;DHT22;11659;51.092;7.080;2022-11-03T07:08:18;11.80;99.90
22986;DHT22;11659;51.092;7.080;2022-11-03T07:10:45;11.80;99.90
22986;DHT22;11659;51.092;7.080;2022-11-03T07:13:14;11.80;99.90
22986;DHT22;11659;51.092;7.080;2022-11-03T07:15:41;11.90;99.90
22986;DHT22;11659;51.092;7.080;2022-11-03T07:18:17;11.80;99.90
22986;DHT22;11659;51.092;7.080;2022-11-03T07:20:44;11.70;99.90
22986;DHT22;11659;51.092;7.080;2022-11-03T07:23:14;11.80;99.90
22986;DHT22;11659;51.092;7.080;2022-11-03T07:25:41;11.70;99.90
22986;DHT22;11659;51.092;7.080;2022-11-03T07:28:09;11.80;99.90
22986;DHT22;11659;51.092;7.080;2022-11-03T07:30:35;11.80;99.90
22986;DHT22;11659;51.092;7.080;2022-11-03T07:33:09;11.80;99.90
22986;DHT22;11659;51.092;7.080;2022-11-03T07:35:40;11.80;99.90
22986;DHT22;11659;51.092;7.080;2022-11-03T07:38:11;11.80;99.90
22986;DHT22;11659;51.092;7.080;2022-11-03T07:40:38;11.80;99.90
22986;DHT22;11659;51.092;7.080;2022-11-03T07:43:13;11.90;99.90
22986;DHT22;11659;51.092;7.080;2022-11-03T07:45:42;11.90;99.90
22986;DHT22;11659;51.092;7.080;2022-11-03T07:48:21;12.00;99.90
22986;DHT22;11659;51.092;7.080;2022-11-03T07:50:50;12.00;99.90
22986;DHT22;11659;51.092;7.080;2022-11-03T07:53:20;12.10;99.90
22986;DHT22;11659;51.092;7.080;2022-11-03T07:55:47;12.20;99.90
22986;DHT22;11659;51.092;7.080;2022-11-03T07:58:19;12.20;99.90
22986;DHT22;11659;51.092;7.080;2022-11-03T08:00:46;12.30;99.90
22986;DHT22;11659;51.092;7.080;2022-11-03T08:03:26;12.30;99.90
22986;DHT22;11659;51.092;7.080;2022-11-03T08:05:55;12.40;99.90
22986;DHT22;11659;51.092;7.080;2022-11-03T08:08:21;12.40;99.90
22986;DHT22;11659;51.092;7.080;2022-11-03T08:10:47;12.50;99.90
22986;DHT22;11659;51.092;7.080;2022-11-03T08:13:12;12.60;99.90
22986;DHT22;11659;51.092;7.080;2022-11-03T08:15:39;12.70;99.90
22986;DHT22;11659;51.092;7.080;2022-11-03T08:18:05;12.80;99.90
22986;DHT22;11659;51.092;7.080;2022-11-03T08:20:30;12.90;99.90
22986;DHT22;11659;51.092;7.080;2022-11-03T08:22:58;12.90;99.90
22986;DHT22;11659;51.092;7.080;2022-11-03T08:25:24;12.90;99.90
22986;DHT22;11659;51.092;7.080;2022-11-03T08:27:50;13.00;99.90
22986;DHT22;11659;51.092;7.080;2022-11-03T08:30:16;13.00;99.90
22986;DHT22;11659;51.092;7.080;2022-11-03T08:32:42;13.10;99.90
22986;DHT22;11659;51.092;7.080;2022-11-03T08:35:08;13.10;99.90
22986;DHT22;11659;51.092;7.080;2022-11-03T08:37:34;13.10;99.90
22986;DHT22;11659;51.092;7.080;2022-11-03T08:40:01;13.10;99.90
22986;DHT22;11659;51.092;7.080;2022-11-03T08:42:29;13.10;99.90
22986;DHT22;11659;51.092;7.080;2022-11-03T08:44:55;13.10;99.90
22986;DHT22;11659;51.092;7.080;2022-11-03T08:47:21;13.10;99.90
22986;DHT22;11659;51.092;7.080;2022-11-03T08:49:46;13.10;99.90
22986;DHT22;11659;51.092;7.080;2022-11-03T08:52:12;13.20;99.90
22986;DHT22;11659;51.092;7.080;2022-11-03T08:54:38;13.10;99.90
22986;DHT22;11659;51.092;7.080;2022-11-03T08:57:06;13.20;99.90
22986;DHT22;11659;51.092;7.080;2022-11-03T08:59:32;13.30;99.90
22986;DHT22;11659;51.092;7.080;2022-11-03T09:01:57;13.30;99.90
22986;DHT22;11659;51.092;7.080;2022-11-03T09:04:23;13.40;99.90
22986;DHT22;11659;51.092;7.080;2022-11-03T09:06:49;13.50;99.90
22986;DHT22;11659;51.092;7.080;2022-11-03T09:09:15;13.60;99.90
22986;DHT22;11659;51.092;7.080;2022-11-03T09:11:41;13.70;99.90
22986;DHT22;11659;51.092;7.080;2022-11-03T09:14:08;13.70;99.90
22986;DHT22;11659;51.092;7.080;2022-11-03T09:16:34;13.80;99.90
22986;DHT22;11659;51.092;7.080;2022-11-03T09:19:00;13.90;99.90
22986;DHT22;11659;51.092;7.080;2022-11-03T09:21:26;13.90;99.90
22986;DHT22;11659;51.092;7.080;2022-11-03T09:23:52;14.00;99.90
22986;DHT22;11659;51.092;7.080;2022-11-03T09:26:18;14.10;99.90
22986;DHT22;11659;51.092;7.080;2022-11-03T09:28:45;14.10;99.90
22986;DHT22;11659;51.092;7.080;2022-11-03T09:31:12;14.10;99.90
22986;DHT22;11659;51.092;7.080;2022-11-03T09:33:38;14.10;99.90
22986;DHT22;11659;51.092;7.080;2022-11-03T09:36:05;14.10;99.90
22986;DHT22;11659;51.092;7.080;2022-11-03T09:38:31;14.20;99.90
22986;DHT22;11659;51.092;7.080;2022-11-03T09:40:57;14.20;99.90
22986;DHT22;11659;51.092;7.080;2022-11-03T09:43:23;14.20;99.90
22986;DHT22;11659;51.092;7.080;2022-11-03T09:45:49;14.20;99.90
22986;DHT22;11659;51.092;7.080;2022-11-03T09:48:16;14.30;99.90
22986;DHT22;11659;51.092;7.080;2022-11-03T09:50:42;14.30;99.90
22986;DHT22;11659;51.092;7.080;2022-11-03T09:53:08;14.40;99.90
22986;DHT22;11659;51.092;7.080;2022-11-03T09:55:34;14.40;99.90
22986;DHT22;11659;51.092;7.080;2022-11-03T09:58:09;14.40;99.90
22986;DHT22;11659;51.092;7.080;2022-11-03T10:00:35;14.50;99.90
22986;DHT22;11659;51.092;7.080;2022-11-03T10:03:02;14.60;99.90
22986;DHT22;11659;51.092;7.080;2022-11-03T10:05:30;14.70;99.90
22986;DHT22;11659;51.092;7.080;2022-11-03T10:07:58;14.70;99.90
22986;DHT22;11659;51.092;7.080;2022-11-03T10:10:25;14.70;99.90
22986;DHT22;11659;51.092;7.080;2022-11-03T10:12:52;14.70;99.90
22986;DHT22;11659;51.092;7.080;2022-11-03T10:15:20;14.70;99.90
22986;DHT22;11659;51.092;7.080;2022-11-03T10:17:47;14.70;99.90
22986;DHT22;11659;51.092;7.080;2022-11-03T10:20:17;14.70;99.90
22986;DHT22;11659;51.092;7.080;2022-11-03T10:22:45;14.70;99.90
22986;DHT22;11659;51.092;7.080;2022-11-03T10:25:33;14.70;99.90
22986;DHT22;11659;51.092;7.080;2022-11-03T10:28:17;14.70;99.90
22986;DHT22;11659;51.092;7.080;2022-11-03T10:30:52;14.70;99.90
22986;DHT22;11659;51.092;7.080;2022-11-03T10:33:26;14.70;99.90
22986;DHT22;11659;51.092;7.080;2022-11-03T10:35:54;14.70;99.90
22986;DHT22;11659;51.092;7.080;2022-11-03T10:38:25;14.60;99.90
22986;DHT22;11659;51.092;7.080;2022-11-03T10:40:56;14.60;99.90
22986;DHT22;11659;51.092;7.080;2022-11-03T10:43:34;14.60;99.90
22986;DHT22;11659;51.092;7.080;2022-11-03T10:46:09;14.60;99.90
22986;DHT22;11659;51.092;7.080;2022-11-03T10:48:36;14.60;99.90
22986;DHT22;11659;51.092;7.080;2022-11-03T10:51:02;14.60;99.90
22986;DHT22;11659;51.092;7.080;2022-11-03T10:53:30;14.60;99.90
22986;DHT22;11659;51.092;7.080;2022-11-03T10:55:56;14.60;99.90
22986;DHT22;11659;51.092;7.080;2022-11-03T10:58:22;14.60;99.90
22986;DHT22;11659;51.092;7.080;2022-11-03T11:00:49;14.60;99.90
22986;DHT22;11659;51.092;7.080;2022-11-03T11:03:15;14.60;99.90
22986;DHT22;11659;51.092;7.080;2022-11-03T11:05:44;14.60;99.90
22986;DHT22;11659;51.092;7.080;2022-11-03T11:08:12;14.60;99.90
22986;DHT22;11659;51.092;7.080;2022-11-03T11:10:42;14.60;99.90
22986;DHT22;11659;51.092;7.080;2022-11-03T11:13:27;14.50;99.90
22986;DHT22;11659;51.092;7.080;2022-11-03T11:15:55;14.50;99.90
22986;DHT22;11659;51.092;7.080;2022-11-03T11:18:59;14.50;99.90
22986;DHT22;11659;51.092;7.080;2022-11-03T11:24:54;14.40;99.90
22986;DHT22;11659;51.092;7.080;2022-11-03T11:27:56;14.40;99.90
22986;DHT22;11659;51.092;7.080;2022-11-03T11:33:30;14.30;99.90
22986;DHT22;11659;51.092;7.080;2022-11-03T11:36:03;14.40;99.90
22986;DHT22;11659;51.092;7.080;2022-11-03T11:39:06;14.40;99.90
22986;DHT22;11659;51.092;7.080;2022-11-03T11:42:07;14.40;99.90
22986;DHT22;11659;51.092;7.080;2022-11-03T11:44:53;14.40;99.90
22986;DHT22;11659;51.092;7.080;2022-11-03T11:50:26;14.40;99.90
22986;DHT22;11659;51.092;7.080;2022-11-03T11:53:00;14.40;99.90
22986;DHT22;11659;51.092;7.080;2022-11-03T11:55:37;14.50;99.90
22986;DHT22;11659;51.092;7.080;2022-11-03T11:58:17;14.50;99.90
22986;DHT22;11659;51.092;7.080;2022-11-03T12:00:57;14.40;99.90
22986;DHT22;11659;51.092;7.080;2022-11-03T12:03:37;14.40;99.90
22986;DHT22;11659;51.092;7.080;2022-11-03T12:06:04;14.40;99.90
22986;DHT22;11659;51.092;7.080;2022-11-03T12:08:30;14.40;99.90
22986;DHT22;11659;51.092;7.080;2022-11-03T12:10:58;14.40;99.90
22986;DHT22;11659;51.092;7.080;2022-11-03T12:13:42;14.40;99.90
22986;DHT22;11659;51.092;7.080;2022-11-03T12:16:25;14.40;99.90
22986;DHT22;11659;51.092;7.080;2022-11-03T12:18:52;14.40;99.90
22986;DHT22;11659;51.092;7.080;2022-11-03T12:21:43;14.30;99.90
22986;DHT22;11659;51.092;7.080;2022-11-03T12:24:24;14.30;99.90
22986;DHT22;11659;51.092;7.080;2022-11-03T12:26:51;14.20;99.90
22986;DHT22;11659;51.092;7.080;2022-11-03T12:29:16;14.20;99.90
22986;DHT22;11659;51.092;7.080;2022-11-03T12:31:45;14.20;99.90
22986;DHT22;11659;51.092;7.080;2022-11-03T12:34:11;14.20;99.90
22986;DHT22;11659;51.092;7.080;2022-11-03T12:36:37;14.20;99.90
22986;DHT22;11659;51.092;7.080;2022-11-03T12:39:03;14.20;99.90
22986;DHT22;11659;51.092;7.080;2022-11-03T12:41:29;14.20;99.90
22986;DHT22;11659;51.092;7.080;2022-11-03T12:43:55;14.20;99.90
22986;DHT22;11659;51.092;7.080;2022-11-03T12:46:22;14.20;99.90
22986;DHT22;11659;51.092;7.080;2022-11-03T12:48:49;14.20;99.90
22986;DHT22;11659;51.092;7.080;2022-11-03T12:51:17;14.20;99.90
22986;DHT22;11659;51.092;7.080;2022-11-03T12:53:43;14.20;99.90
22986;DHT22;11659;51.092;7.080;2022-11-03T12:56:11;14.20;99.90
22986;DHT22;11659;51.092;7.080;2022-11-03T12:58:37;14.20;99.90
22986;DHT22;11659;51.092;7.080;2022-11-03T13:01:04;14.10;99.90
22986;DHT22;11659;51.092;7.080;2022-11-03T13:03:30;14.10;99.90
22986;DHT22;11659;51.092;7.080;2022-11-03T13:05:59;14.10;99.90
22986;DHT22;11659;51.092;7.080;2022-11-03T13:08:25;14.10;99.90
22986;DHT22;11659;51.092;7.080;2022-11-03T13:10:51;14.00;99.90
22986;DHT22;11659;51.092;7.080;2022-11-03T13:13:17;14.00;99.90
22986;DHT22;11659;51.092;7.080;2022-11-03T13:15:43;14.00;99.90
22986;DHT22;11659;51.092;7.080;2022-11-03T13:18:09;13.90;99.90
22986;DHT22;11659;51.092;7.080;2022-11-03T13:20:35;14.00;99.90
22986;DHT22;11659;51.092;7.080;2022-11-03T13:23:03;13.90;99.90
22986;DHT22;11659;51.092;7.080;2022-11-03T13:25:30;13.90;99.90
22986;DHT22;11659;51.092;7.080;2022-11-03T13:27:56;13.90;99.90
22986;DHT22;11659;51.092;7.080;2022-11-03T13:30:23;13.90;99.90
22986;DHT22;11659;51.092;7.080;2022-11-03T13:32:50;13.90;99.90
22986;DHT22;11659;51.092;7.080;2022-11-03T13:35:16;13.90;99.90
22986;DHT22;11659;51.092;7.080;2022-11-03T13:37:42;13.90;99.90
22986;DHT22;11659;51.092;7.080;2022-11-03T13:40:11;13.90;99.90
22986;DHT22;11659;51.092;7.080;2022-11-03T13:42:38;13.90;99.90
22986;DHT22;11659;51.092;7.080;2022-11-03T13:45:05;13.90;99.90
22986;DHT22;11659;51.092;7.080;2022-11-03T13:47:32;13.90;99.90
22986;DHT22;11659;51.092;7.080;2022-11-03T13:49:58;13.90;99.90
22986;DHT22;11659;51.092;7.080;2022-11-03T13:52:25;13.80;99.90
22986;DHT22;11659;51.092;7.080;2022-11-03T13:54:51;13.90;99.90
22986;DHT22;11659;51.092;7.080;2022-11-03T13:57:18;13.90;99.90
22986;DHT22;11659;51.092;7.080;2022-11-03T13:59:44;13.90;99.90
22986;DHT22;11659;51.092;7.080;2022-11-03T14:02:11;13.80;99.90
22986;DHT22;11659;51.092;7.080;2022-11-03T14:04:37;13.80;99.90
22986;DHT22;11659;51.092;7.080;2022-11-03T14:07:04;13.90;99.90
22986;DHT22;11659;51.092;7.080;2022-11-03T14:09:30;13.80;99.90
22986;DHT22;11659;51.092;7.080;2022-11-03T14:11:56;13.80;99.90
22986;DHT22;11659;51.092;7.080;2022-11-03T14:14:41;13.80;99.90
22986;DHT22;11659;51.092;7.080;2022-11-03T14:17:07;13.70;99.90
22986;DHT22;11659;51.092;7.080;2022-11-03T14:19:34;13.70;99.90
22986;DHT22;11659;51.092;7.080;2022-11-03T14:22:00;13.70;99.90
22986;DHT22;11659;51.092;7.080;2022-11-03T14:24:26;13.80;99.90
22986;DHT22;11659;51.092;7.080;2022-11-03T14:26:52;13.80;99.90
22986;DHT22;11659;51.092;7.080;2022-11-03T14:29:17;13.80;99.90
22986;DHT22;11659;51.092;7.080;2022-11-03T14:31:45;13.80;99.90
22986;DHT22;11659;51.092;7.080;2022-11-03T14:34:11;13.70;99.90
22986;DHT22;11659;51.092;7.080;2022-11-03T14:36:37;13.70;99.90
22986;DHT22;11659;51.092;7.080;2022-11-03T14:39:03;13.70;99.90
22986;DHT22;11659;51.092;7.080;2022-11-03T14:41:29;13.70;99.90
22986;DHT22;11659;51.092;7.080;2022-11-03T14:44:13;13.60;99.90
22986;DHT22;11659;51.092;7.080;2022-11-03T14:46:39;13.60;99.90
22986;DHT22;11659;51.092;7.080;2022-11-03T14:49:06;13.60;99.90
22986;DHT22;11659;51.092;7.080;2022-11-03T14:51:33;13.60;99.90
22986;DHT22;11659;51.092;7.080;2022-11-03T14:53:59;13.60;99.90
22986;DHT22;11659;51.092;7.080;2022-11-03T14:56:25;13.60;99.90
22986;DHT22;11659;51.092;7.080;2022-11-03T14:58:51;13.50;99.90
22986;DHT22;11659;51.092;7.080;2022-11-03T15:01:18;13.40;99.90
22986;DHT22;11659;51.092;7.080;2022-11-03T15:03:44;13.30;99.90
22986;DHT22;11659;51.092;7.080;2022-11-03T15:06:12;13.20;99.90
22986;DHT22;11659;51.092;7.080;2022-11-03T15:08:38;13.20;99.90
22986;DHT22;11659;51.092;7.080;2022-11-03T15:11:04;14.00;99.90
22986;DHT22;11659;51.092;7.080;2022-11-03T15:13:32;13.00;99.90
22986;DHT22;11659;51.092;7.080;2022-11-03T15:15:58;13.90;99.90
22986;DHT22;11659;51.092;7.080;2022-11-03T15:18:24;12.90;99.90
22986;DHT22;11659;51.092;7.080;2022-11-03T15:20:50;12.80;99.90
22986;DHT22;11659;51.092;7.080;2022-11-03T15:23:18;12.90;99.90
22986;DHT22;11659;51.092;7.080;2022-11-03T15:25:43;12.80;99.90
22986;DHT22;11659;51.092;7.080;2022-11-03T15:28:09;12.70;99.90
22986;DHT22;11659;51.092;7.080;2022-11-03T15:30:38;12.70;99.90
22986;DHT22;11659;51.092;7.080;2022-11-03T15:33:04;12.70;99.90
22986;DHT22;11659;51.092;7.080;2022-11-03T15:35:30;12.50;99.90
22986;DHT22;11659;51.092;7.080;2022-11-03T15:37:56;12.50;99.90
22986;DHT22;11659;51.092;7.080;2022-11-03T15:40:26;12.40;99.90
22986;DHT22;11659;51.092;7.080;2022-11-03T15:42:52;12.40;99.90
22986;DHT22;11659;51.092;7.080;2022-11-03T15:45:18;12.40;99.90
22986;DHT22;11659;51.092;7.080;2022-11-03T15:47:44;12.40;99.90
22986;DHT22;11659;51.092;7.080;2022-11-03T15:50:11;12.00;99.90
22986;DHT22;11659;51.092;7.080;2022-11-03T15:52:37;12.30;99.90